Happy Dragon — PBXI — position and weather

sailwx.info

Track history (hours):
 
Tides and Currents Weather Stations Pressure Air Temp Water Temp Dewpoint Dewpoint Depression Visibility Wind Speed Wind Dir Waves Ship Positions

Happy Dragon

Last reported at 2017-Dec-11 17:00 UTC. Time now 2017-Dec-12 19:57 UTC.
Position N 55°27' E 008°27'.

Length 157 m; draft 6.8 m.

Type: Cargo ship. MMSI: 246661000.

Date/timePositionNaut miles runAvg speedWind from/ knotsBaromVisibWave heightAir tempDewpointWater temp
2017-Dec-11 17:00N 55°27' E 008°27'0 0.0
2017-Dec-11 16:30N 55°27' E 008°27'0 0.0
2017-Dec-11 16:00N 55°27' E 008°27'0 0.0
2017-Dec-11 15:27N 55°27' E 008°27'0 0.0
2017-Dec-11 15:00N 55°27' E 008°27'0 0.0
2017-Dec-11 14:27N 55°27' E 008°27'0 0.0
2017-Dec-11 13:51N 55°27' E 008°27'0 0.0
2017-Dec-11 13:30N 55°27' E 008°27'0 0.0
2017-Dec-11 12:51N 55°27' E 008°27'0 0.0
2017-Dec-11 12:24N 55°27' E 008°27'0 0.0
2017-Dec-11 11:57N 55°27' E 008°27'0 0.0
2017-Dec-11 11:27N 55°27' E 008°27'0 0.0
2017-Dec-11 10:48N 55°27' E 008°27'0 0.0
2017-Dec-11 10:24N 55°27' E 008°27'0 0.0
2017-Dec-11 09:54N 55°27' E 008°27'0 0.0
2017-Dec-11 09:27N 55°27' E 008°27'1 2.2
2017-Dec-11 09:00N 55°28' E 008°25'4 8.7
2017-Dec-11 08:30N 55°27' E 008°18'611.8
2017-Dec-11 08:01N 55°24' E 008°09'714.4
2017-Dec-11 07:30N 55°23' E 007°56'714.2
2017-Dec-11 07:01N 55°23' E 007°44'714.4
2017-Dec-11 06:30N 55°22' E 007°31'714.6
2017-Dec-11 06:01N 55°22' E 007°18'714.9
2017-Dec-11 05:30N 55°21' E 007°05'714.9
2017-Dec-11 05:00N 55°21' E 006°52'815.0
2017-Dec-11 04:30N 55°20' E 006°39'25514.1
2017-Dec-10 10:22N 55°02' W 000°46'814.2
2017-Dec-10 09:50N 55°02' W 000°59'514.3
2017-Dec-10 09:30N 55°02' W 001°07'714.4
2017-Dec-10 09:00N 55°01' W 001°20'4 8.2
2017-Dec-10 08:31N 54°60' W 001°27'3 5.3
2017-Dec-10 07:59N 54°59' W 001°31'1 2.0
2017-Dec-10 07:31N 54°58' W 001°32'0 0.5
2017-Dec-10 06:56N 54°58' W 001°32'0 0.0
2017-Dec-10 06:26N 54°58' W 001°32'0 0.0
2017-Dec-10 05:59N 54°58' W 001°32'0 0.0
2017-Dec-10 05:26N 54°58' W 001°32'0 0.0
2017-Dec-10 04:59N 54°58' W 001°32'0 0.0
2017-Dec-10 04:29N 54°58' W 001°32'0 0.0
2017-Dec-10 03:59N 54°58' W 001°32'0 0.0
2017-Dec-10 03:29N 54°58' W 001°32'0 0.0
2017-Dec-10 02:59N 54°58' W 001°32'0 0.0
2017-Dec-10 02:29N 54°58' W 001°32'0 0.0
2017-Dec-10 01:59N 54°58' W 001°32'0 0.0
2017-Dec-10 01:29N 54°58' W 001°32'0 0.0
2017-Dec-10 00:59N 54°58' W 001°32'0 0.0
2017-Dec-10 00:29N 54°58' W 001°32'0 0.0
2017-Dec-09 23:59N 54°58' W 001°32'0 0.0
2017-Dec-09 23:29N 54°58' W 001°32'0 0.0
2017-Dec-09 22:59N 54°58' W 001°32'0 0.0
2017-Dec-09 22:29N 54°58' W 001°32'0 0.0
2017-Dec-09 21:59N 54°58' W 001°32'0 0.0
2017-Dec-09 21:20N 54°58' W 001°32'0 0.0
2017-Dec-09 20:50N 54°58' W 001°32'0 0.0
2017-Dec-09 20:17N 54°58' W 001°32'0 0.0
2017-Dec-09 19:53N 54°58' W 001°32'0 0.0
2017-Dec-09 19:23N 54°58' W 001°32'0 0.0
2017-Dec-09 18:53N 54°58' W 001°32'0 0.0
2017-Dec-09 18:26N 54°58' W 001°32'0 0.0
2017-Dec-09 17:53N 54°58' W 001°32'0 0.0
2017-Dec-09 17:23N 54°58' W 001°32'0 0.0
2017-Dec-09 16:56N 54°58' W 001°32'0 0.0
2017-Dec-09 16:26N 54°58' W 001°32'0 0.0
2017-Dec-09 15:56N 54°58' W 001°32'0 0.0
2017-Dec-09 15:26N 54°58' W 001°32'0 0.0
2017-Dec-09 14:56N 54°58' W 001°32'0 0.0
2017-Dec-09 14:26N 54°58' W 001°32'0 0.0
2017-Dec-09 13:44N 54°58' W 001°32'0 0.0
2017-Dec-09 13:29N 54°58' W 001°32'0 0.0
2017-Dec-09 12:59N 54°58' W 001°32'0 0.0
2017-Dec-09 12:29N 54°58' W 001°32'0 0.0
2017-Dec-09 11:59N 54°58' W 001°32'0 0.0
2017-Dec-09 11:29N 54°58' W 001°32'0 0.0
2017-Dec-09 10:59N 54°58' W 001°32'0 0.0
2017-Dec-09 10:29N 54°58' W 001°32'0 0.0
2017-Dec-09 09:59N 54°58' W 001°32'0 0.0
2017-Dec-09 09:29N 54°58' W 001°32'0 0.0
2017-Dec-09 08:59N 54°58' W 001°32'0 0.0
2017-Dec-09 08:29N 54°58' W 001°32'0 0.0
2017-Dec-09 07:59N 54°58' W 001°32'0 0.0
2017-Dec-09 07:29N 54°58' W 001°32'0 0.0
2017-Dec-09 06:53N 54°58' W 001°32'0 0.0
2017-Dec-09 06:29N 54°58' W 001°32'0 0.0
2017-Dec-09 05:50N 54°58' W 001°32'0 0.0
2017-Dec-09 05:23N 54°58' W 001°32'0 0.0
2017-Dec-09 04:53N 54°58' W 001°32'0 0.0
2017-Dec-09 04:23N 54°58' W 001°32'0 0.0
2017-Dec-09 03:53N 54°58' W 001°32'0 0.0
2017-Dec-09 03:26N 54°58' W 001°32'0 0.0
2017-Dec-09 02:53N 54°58' W 001°32'0 0.0
2017-Dec-09 02:23N 54°58' W 001°32'0 0.0
2017-Dec-09 01:56N 54°58' W 001°32'0 0.0
2017-Dec-09 01:26N 54°58' W 001°32'0 0.0
2017-Dec-09 00:56N 54°58' W 001°32'0 0.0
2017-Dec-09 00:26N 54°58' W 001°32'0 0.0
2017-Dec-08 23:56N 54°58' W 001°32'0 0.0
2017-Dec-08 23:29N 54°58' W 001°32'0 0.0
2017-Dec-08 22:59N 54°58' W 001°32'0 0.0
2017-Dec-08 22:29N 54°58' W 001°32'0 0.0
2017-Dec-08 21:59N 54°58' W 001°32'0 0.0
2017-Dec-08 21:29N 54°58' W 001°32'0 0.0
2017-Dec-08 20:59N 54°58' W 001°32'0 0.0
2017-Dec-08 20:29N 54°58' W 001°32'0 0.0
2017-Dec-08 19:59N 54°58' W 001°32'0 0.0
2017-Dec-08 19:29N 54°58' W 001°32'0 0.0
2017-Dec-08 18:59N 54°58' W 001°32'0 0.5
2017-Dec-08 18:30N 54°58' W 001°32'2 4.4
2017-Dec-08 18:00N 54°59' W 001°29'3 5.2
2017-Dec-08 17:30N 55°01' W 001°25'4 7.3
2017-Dec-08 17:00N 55°03' W 001°19'2 3.9
2017-Dec-08 16:30N 55°03' W 001°23'0 0.3
2017-Dec-08 16:00N 55°03' W 001°23'0 0.0
2017-Dec-08 15:30N 55°03' W 001°23'0 0.1
2017-Dec-08 15:00N 55°03' W 001°23'0 0.1
2017-Dec-08 14:30N 55°03' W 001°23'2 3.6
2017-Dec-08 14:00N 55°01' W 001°20'612.7
2017-Dec-08 13:30N 54°57' W 001°13'612.2
2017-Dec-08 13:00N 54°52' W 001°05'611.8
2017-Dec-08 12:30N 54°48' W 000°58'611.4
2017-Dec-08 12:00N 54°44' W 000°51'1710.2
2017-Dec-08 10:19N 54°31' W 000°31'310.7
2017-Dec-08 10:01N 54°29' W 000°28'510.5
2017-Dec-08 09:30N 54°25' W 000°21'510.0
2017-Dec-08 09:00N 54°21' W 000°15'5 9.8
2017-Dec-08 08:30N 54°18' W 000°10'4 8.9
2017-Dec-08 08:01N 54°14' W 000°05'5 9.4
2017-Dec-08 07:30N 54°11' E 000°01'5 9.1
2017-Dec-08 07:00N 54°08' E 000°06'5 9.9
2017-Dec-08 06:31N 54°04' E 000°12'510.8
2017-Dec-08 06:00N 53°60' E 000°18'5213.5
2017-Dec-08 02:07N 53°19' E 001°12'214.0
2017-Dec-08 02:00N 53°17' E 001°14'713.1
2017-Dec-08 01:31N 53°13' E 001°21'612.3
2017-Dec-08 01:00N 53°09' E 001°29'611.5
2017-Dec-08 00:30N 53°05' E 001°36'611.1
2017-Dec-08 00:00N 53°01' E 001°43'611.0
2017-Dec-07 23:30N 52°58' E 001°50'510.3
2017-Dec-07 23:00N 52°55' E 001°57'510.2
2017-Dec-07 22:30N 52°51' E 002°03'6613.1
2017-Dec-07 17:28N 51°45' E 002°09'817.3
2017-Dec-07 17:00N 51°39' E 002°02'816.0
2017-Dec-07 16:31N 51°32' E 001°57'815.1
2017-Dec-07 16:00N 51°25' E 002°02'815.4
2017-Dec-07 15:30N 51°18' E 001°56'816.9
2017-Dec-07 15:00N 51°11' E 001°48'918.3
2017-Dec-07 14:31N 51°04' E 001°39'1019.7
2017-Dec-07 14:00N 50°56' E 001°30'4816.8
2017-Dec-07 11:08N 50°26' E 000°31'217.5
2017-Dec-07 11:00N 50°25' E 000°27'917.5
2017-Dec-07 10:30N 50°22' E 000°14'917.0
2017-Dec-07 10:00N 50°20' E 000°01'816.8
2017-Dec-07 09:30N 50°17' W 000°11'9213.5
2017-Dec-07 02:44N 49°53' W 002°29'312.8
2017-Dec-07 02:28N 49°52' W 002°34'913.3
2017-Dec-07 01:50N 49°50' W 002°47'413.8
2017-Dec-07 01:30N 49°48' W 002°53'714.3
2017-Dec-07 00:59N 49°45' W 003°03'714.6
2017-Dec-07 00:30N 49°41' W 003°13'  
2017-Dec-04 10:23N 43°21' W 003°02'0 0.0
2017-Dec-04 09:59N 43°21' W 003°02'0 0.0
2017-Dec-04 09:29N 43°21' W 003°02'0 0.0
2017-Dec-04 08:56N 43°21' W 003°02'0 0.0
2017-Dec-04 08:29N 43°21' W 003°02'0 0.0
2017-Dec-04 07:59N 43°21' W 003°02'0 0.0
2017-Dec-04 07:29N 43°21' W 003°02'0 0.0
2017-Dec-04 06:59N 43°21' W 003°02'0 0.0
2017-Dec-04 06:29N 43°21' W 003°02'0 0.0
2017-Dec-04 05:59N 43°21' W 003°02'0 0.0
2017-Dec-04 05:29N 43°21' W 003°02'0 0.0
2017-Dec-04 04:56N 43°21' W 003°02'0 0.0
2017-Dec-04 04:29N 43°21' W 003°02'0 0.0
2017-Dec-04 03:59N 43°21' W 003°02'0 0.0
2017-Dec-04 03:26N 43°21' W 003°02'0 0.0
2017-Dec-04 02:59N 43°21' W 003°02'0 0.0
2017-Dec-04 02:29N 43°21' W 003°02'0 0.0
2017-Dec-04 01:59N 43°21' W 003°02'0 0.0
2017-Dec-04 01:29N 43°21' W 003°02'0 0.0
2017-Dec-04 00:59N 43°21' W 003°02'0 0.0
2017-Dec-04 00:29N 43°21' W 003°02'0 0.0
2017-Dec-03 23:59N 43°21' W 003°02'0 0.0
2017-Dec-03 23:29N 43°21' W 003°02'0 0.0
2017-Dec-03 22:59N 43°21' W 003°02'0 0.0
2017-Dec-03 22:29N 43°21' W 003°02'0 0.0
2017-Dec-03 21:59N 43°21' W 003°02'0 0.0
2017-Dec-03 21:29N 43°21' W 003°02'0 0.0
2017-Dec-03 20:59N 43°21' W 003°02'0 0.0
2017-Dec-03 20:29N 43°21' W 003°02'0 0.0
2017-Dec-03 19:59N 43°21' W 003°02'0 0.0
2017-Dec-03 19:29N 43°21' W 003°02'0 0.0
2017-Dec-03 18:59N 43°21' W 003°02'0 0.0
2017-Dec-03 18:29N 43°21' W 003°02'0 0.0
2017-Dec-03 17:59N 43°21' W 003°02'0 0.0
2017-Dec-03 17:29N 43°21' W 003°02'0 0.0
2017-Dec-03 16:59N 43°21' W 003°02'0 0.0
2017-Dec-03 16:29N 43°21' W 003°02'0 0.0
2017-Dec-03 15:56N 43°21' W 003°02'0 0.0
2017-Dec-03 15:29N 43°21' W 003°02'0 0.0
2017-Dec-03 14:59N 43°21' W 003°02'0 0.0
2017-Dec-03 14:29N 43°21' W 003°02'0 0.0
2017-Dec-03 13:59N 43°21' W 003°02'0 0.0
2017-Dec-03 13:29N 43°21' W 003°02'0 0.0
2017-Dec-03 12:59N 43°21' W 003°02'0 0.0
2017-Dec-03 12:29N 43°21' W 003°02'0 0.0
2017-Dec-03 11:59N 43°21' W 003°02'0 0.0
2017-Dec-03 11:29N 43°21' W 003°02'0 0.0
2017-Dec-03 10:56N 43°21' W 003°02'0 0.0
2017-Dec-03 10:29N 43°21' W 003°02'0 0.0
2017-Dec-03 09:59N 43°21' W 003°02'0 0.0
2017-Dec-03 09:29N 43°21' W 003°02'0 0.0
2017-Dec-03 08:59N 43°21' W 003°02'0 0.0
2017-Dec-03 08:29N 43°21' W 003°02'0 0.0
2017-Dec-03 07:59N 43°21' W 003°02'0 0.0
2017-Dec-03 07:29N 43°21' W 003°02'0 0.0
2017-Dec-03 06:59N 43°21' W 003°02'0 0.0
2017-Dec-03 06:29N 43°21' W 003°02'0 0.0
2017-Dec-03 05:59N 43°21' W 003°02'0 0.0
2017-Dec-03 05:29N 43°21' W 003°02'0 0.0
2017-Dec-03 04:59N 43°21' W 003°02'0 0.0
2017-Dec-03 04:29N 43°21' W 003°02'0 0.0
2017-Dec-03 03:59N 43°21' W 003°02'0 0.0
2017-Dec-03 03:29N 43°21' W 003°02'0 0.0
2017-Dec-03 02:59N 43°21' W 003°02'0 0.0
2017-Dec-03 02:29N 43°21' W 003°02'0 0.0
2017-Dec-03 01:59N 43°21' W 003°02'0 0.0
2017-Dec-03 01:29N 43°21' W 003°02'0 0.0
2017-Dec-03 00:59N 43°21' W 003°02'0 0.0
2017-Dec-03 00:29N 43°21' W 003°02'0 0.0
2017-Dec-02 23:59N 43°21' W 003°02'0 0.0
2017-Dec-02 23:29N 43°21' W 003°02'0 0.0
2017-Dec-02 22:59N 43°21' W 003°02'0 0.0
2017-Dec-02 22:29N 43°21' W 003°02'0 0.0
2017-Dec-02 21:59N 43°21' W 003°02'0 0.0
2017-Dec-02 21:29N 43°21' W 003°02'0 0.0
2017-Dec-02 20:59N 43°21' W 003°02'0 0.0
2017-Dec-02 20:29N 43°21' W 003°02'0 0.0
2017-Dec-02 19:59N 43°21' W 003°02'0 0.0
2017-Dec-02 19:29N 43°21' W 003°02'0 0.0
2017-Dec-02 18:59N 43°21' W 003°02'0 0.0
2017-Dec-02 18:29N 43°21' W 003°02'0 0.0
2017-Dec-02 17:59N 43°21' W 003°02'0 0.0
2017-Dec-02 17:29N 43°21' W 003°02'0 0.0
2017-Dec-02 16:59N 43°21' W 003°02'0 0.0
2017-Dec-02 16:29N 43°21' W 003°02'0 0.0
2017-Dec-02 15:59N 43°21' W 003°02'0 0.0
2017-Dec-02 15:29N 43°21' W 003°02'0 0.0
2017-Dec-02 14:59N 43°21' W 003°02'0 0.0
2017-Dec-02 14:29N 43°21' W 003°02'0 0.0
2017-Dec-02 13:59N 43°21' W 003°02'0 0.0
2017-Dec-02 13:29N 43°21' W 003°02'0 0.0
2017-Dec-02 12:59N 43°21' W 003°02'0 0.0
2017-Dec-02 12:29N 43°21' W 003°02'0 0.0
2017-Dec-02 11:56N 43°21' W 003°02'0 0.0
2017-Dec-02 11:29N 43°21' W 003°02'0 0.0
2017-Dec-02 10:59N 43°21' W 003°02'0 0.0
2017-Dec-02 10:29N 43°21' W 003°02'0 0.0
2017-Dec-02 09:59N 43°21' W 003°02'0 0.0
2017-Dec-02 09:29N 43°21' W 003°02'0 0.0
2017-Dec-02 08:59N 43°21' W 003°02'0 0.0
2017-Dec-02 08:29N 43°21' W 003°02'0 0.0
2017-Dec-02 07:59N 43°21' W 003°02'0 0.0
2017-Dec-02 07:26N 43°21' W 003°02'0 0.0
2017-Dec-02 06:59N 43°21' W 003°02'0 0.0
2017-Dec-02 06:29N 43°21' W 003°02'0 0.0
2017-Dec-02 05:59N 43°21' W 003°02'0 0.0
2017-Dec-02 05:29N 43°21' W 003°02'0 0.0
2017-Dec-02 04:59N 43°21' W 003°02'0 0.0
2017-Dec-02 04:29N 43°21' W 003°02'0 0.0
2017-Dec-02 03:59N 43°21' W 003°02'0 0.0
2017-Dec-02 03:29N 43°21' W 003°02'0 0.0
2017-Dec-02 02:59N 43°21' W 003°02'0 0.0
2017-Dec-02 02:29N 43°21' W 003°02'0 0.0
2017-Dec-02 01:59N 43°21' W 003°02'0 0.0
2017-Dec-02 01:29N 43°21' W 003°02'0 0.0
2017-Dec-02 00:59N 43°21' W 003°02'0 0.0
2017-Dec-02 00:29N 43°21' W 003°02'0 0.0
2017-Dec-01 23:59N 43°21' W 003°02'0 0.0
2017-Dec-01 23:29N 43°21' W 003°02'0 0.0
2017-Dec-01 22:59N 43°21' W 003°02'0 0.0
2017-Dec-01 22:29N 43°21' W 003°02'0 0.0
2017-Dec-01 21:59N 43°21' W 003°02'0 0.0
2017-Dec-01 21:26N 43°21' W 003°02'0 0.0
2017-Dec-01 20:59N 43°21' W 003°02'0 0.0
2017-Dec-01 20:29N 43°21' W 003°02'0 0.0
2017-Dec-01 19:59N 43°21' W 003°02'0 0.0
2017-Dec-01 19:29N 43°21' W 003°02'0 0.0
2017-Dec-01 18:59N 43°21' W 003°02'0 0.0
2017-Dec-01 18:29N 43°21' W 003°02'0 0.0
2017-Dec-01 17:59N 43°21' W 003°02'0 0.0
2017-Dec-01 17:29N 43°21' W 003°02'  
Track history (hours):
 
Tides and Currents Weather Stations Pressure Air Temp Water Temp Dewpoint Dewpoint Depression Visibility Wind Speed Wind Dir Waves Ship Positions

Happy Dragon

Last reported at 2017-Dec-11 17:00 UTC. Time now 2017-Dec-12 19:57 UTC.
Position N 55°27' E 008°27'.

Length 157 m; draft 6.8 m.

Type: Cargo ship. MMSI: 246661000.

Date/timePositionNaut miles runAvg speedWind from/ knotsBaromVisibWave heightAir tempDewpointWater temp
2017-Dec-11 17:00N 55°27' E 008°27'0 0.0
2017-Dec-11 16:30N 55°27' E 008°27'0 0.0
2017-Dec-11 16:00N 55°27' E 008°27'0 0.0
2017-Dec-11 15:27N 55°27' E 008°27'0 0.0
2017-Dec-11 15:00N 55°27' E 008°27'0 0.0
2017-Dec-11 14:27N 55°27' E 008°27'0 0.0
2017-Dec-11 13:51N 55°27' E 008°27'0 0.0
2017-Dec-11 13:30N 55°27' E 008°27'0 0.0
2017-Dec-11 12:51N 55°27' E 008°27'0 0.0
2017-Dec-11 12:24N 55°27' E 008°27'0 0.0
2017-Dec-11 11:57N 55°27' E 008°27'0 0.0
2017-Dec-11 11:27N 55°27' E 008°27'0 0.0
2017-Dec-11 10:48N 55°27' E 008°27'0 0.0
2017-Dec-11 10:24N 55°27' E 008°27'0 0.0
2017-Dec-11 09:54N 55°27' E 008°27'0 0.0
2017-Dec-11 09:27N 55°27' E 008°27'1 2.2
2017-Dec-11 09:00N 55°28' E 008°25'4 8.7
2017-Dec-11 08:30N 55°27' E 008°18'611.8
2017-Dec-11 08:01N 55°24' E 008°09'714.4
2017-Dec-11 07:30N 55°23' E 007°56'714.2
2017-Dec-11 07:01N 55°23' E 007°44'714.4
2017-Dec-11 06:30N 55°22' E 007°31'714.6
2017-Dec-11 06:01N 55°22' E 007°18'714.9
2017-Dec-11 05:30N 55°21' E 007°05'714.9
2017-Dec-11 05:00N 55°21' E 006°52'815.0
2017-Dec-11 04:30N 55°20' E 006°39'25514.1
2017-Dec-10 10:22N 55°02' W 000°46'814.2
2017-Dec-10 09:50N 55°02' W 000°59'514.3
2017-Dec-10 09:30N 55°02' W 001°07'714.4
2017-Dec-10 09:00N 55°01' W 001°20'4 8.2
2017-Dec-10 08:31N 54°60' W 001°27'3 5.3
2017-Dec-10 07:59N 54°59' W 001°31'1 2.0
2017-Dec-10 07:31N 54°58' W 001°32'0 0.5
2017-Dec-10 06:56N 54°58' W 001°32'0 0.0
2017-Dec-10 06:26N 54°58' W 001°32'0 0.0
2017-Dec-10 05:59N 54°58' W 001°32'0 0.0
2017-Dec-10 05:26N 54°58' W 001°32'0 0.0
2017-Dec-10 04:59N 54°58' W 001°32'0 0.0
2017-Dec-10 04:29N 54°58' W 001°32'0 0.0
2017-Dec-10 03:59N 54°58' W 001°32'0 0.0
2017-Dec-10 03:29N 54°58' W 001°32'0 0.0
2017-Dec-10 02:59N 54°58' W 001°32'0 0.0
2017-Dec-10 02:29N 54°58' W 001°32'0 0.0
2017-Dec-10 01:59N 54°58' W 001°32'0 0.0
2017-Dec-10 01:29N 54°58' W 001°32'0 0.0
2017-Dec-10 00:59N 54°58' W 001°32'0 0.0
2017-Dec-10 00:29N 54°58' W 001°32'0 0.0
2017-Dec-09 23:59N 54°58' W 001°32'0 0.0
2017-Dec-09 23:29N 54°58' W 001°32'0 0.0
2017-Dec-09 22:59N 54°58' W 001°32'0 0.0
2017-Dec-09 22:29N 54°58' W 001°32'0 0.0
2017-Dec-09 21:59N 54°58' W 001°32'0 0.0
2017-Dec-09 21:20N 54°58' W 001°32'0 0.0
2017-Dec-09 20:50N 54°58' W 001°32'0 0.0
2017-Dec-09 20:17N 54°58' W 001°32'0 0.0
2017-Dec-09 19:53N 54°58' W 001°32'0 0.0
2017-Dec-09 19:23N 54°58' W 001°32'0 0.0
2017-Dec-09 18:53N 54°58' W 001°32'0 0.0
2017-Dec-09 18:26N 54°58' W 001°32'0 0.0
2017-Dec-09 17:53N 54°58' W 001°32'0 0.0
2017-Dec-09 17:23N 54°58' W 001°32'0 0.0
2017-Dec-09 16:56N 54°58' W 001°32'0 0.0
2017-Dec-09 16:26N 54°58' W 001°32'0 0.0
2017-Dec-09 15:56N 54°58' W 001°32'0 0.0
2017-Dec-09 15:26N 54°58' W 001°32'0 0.0
2017-Dec-09 14:56N 54°58' W 001°32'0 0.0
2017-Dec-09 14:26N 54°58' W 001°32'0 0.0
2017-Dec-09 13:44N 54°58' W 001°32'0 0.0
2017-Dec-09 13:29N 54°58' W 001°32'0 0.0
2017-Dec-09 12:59N 54°58' W 001°32'0 0.0
2017-Dec-09 12:29N 54°58' W 001°32'0 0.0
2017-Dec-09 11:59N 54°58' W 001°32'0 0.0
2017-Dec-09 11:29N 54°58' W 001°32'0 0.0
2017-Dec-09 10:59N 54°58' W 001°32'0 0.0
2017-Dec-09 10:29N 54°58' W 001°32'0 0.0
2017-Dec-09 09:59N 54°58' W 001°32'0 0.0
2017-Dec-09 09:29N 54°58' W 001°32'0 0.0
2017-Dec-09 08:59N 54°58' W 001°32'0 0.0
2017-Dec-09 08:29N 54°58' W 001°32'0 0.0
2017-Dec-09 07:59N 54°58' W 001°32'0 0.0
2017-Dec-09 07:29N 54°58' W 001°32'0 0.0
2017-Dec-09 06:53N 54°58' W 001°32'0 0.0
2017-Dec-09 06:29N 54°58' W 001°32'0 0.0
2017-Dec-09 05:50N 54°58' W 001°32'0 0.0
2017-Dec-09 05:23N 54°58' W 001°32'0 0.0
2017-Dec-09 04:53N 54°58' W 001°32'0 0.0
2017-Dec-09 04:23N 54°58' W 001°32'0 0.0
2017-Dec-09 03:53N 54°58' W 001°32'0 0.0
2017-Dec-09 03:26N 54°58' W 001°32'0 0.0
2017-Dec-09 02:53N 54°58' W 001°32'0 0.0
2017-Dec-09 02:23N 54°58' W 001°32'0 0.0
2017-Dec-09 01:56N 54°58' W 001°32'0 0.0
2017-Dec-09 01:26N 54°58' W 001°32'0 0.0
2017-Dec-09 00:56N 54°58' W 001°32'0 0.0
2017-Dec-09 00:26N 54°58' W 001°32'0 0.0
2017-Dec-08 23:56N 54°58' W 001°32'0 0.0
2017-Dec-08 23:29N 54°58' W 001°32'0 0.0
2017-Dec-08 22:59N 54°58' W 001°32'0 0.0
2017-Dec-08 22:29N 54°58' W 001°32'0 0.0
2017-Dec-08 21:59N 54°58' W 001°32'0 0.0
2017-Dec-08 21:29N 54°58' W 001°32'0 0.0
2017-Dec-08 20:59N 54°58' W 001°32'0 0.0
2017-Dec-08 20:29N 54°58' W 001°32'0 0.0
2017-Dec-08 19:59N 54°58' W 001°32'0 0.0
2017-Dec-08 19:29N 54°58' W 001°32'0 0.0
2017-Dec-08 18:59N 54°58' W 001°32'0 0.5
2017-Dec-08 18:30N 54°58' W 001°32'2 4.4
2017-Dec-08 18:00N 54°59' W 001°29'3 5.2
2017-Dec-08 17:30N 55°01' W 001°25'4 7.3
2017-Dec-08 17:00N 55°03' W 001°19'2 3.9
2017-Dec-08 16:30N 55°03' W 001°23'0 0.3
2017-Dec-08 16:00N 55°03' W 001°23'0 0.0
2017-Dec-08 15:30N 55°03' W 001°23'0 0.1
2017-Dec-08 15:00N 55°03' W 001°23'0 0.1
2017-Dec-08 14:30N 55°03' W 001°23'2 3.6
2017-Dec-08 14:00N 55°01' W 001°20'612.7
2017-Dec-08 13:30N 54°57' W 001°13'612.2
2017-Dec-08 13:00N 54°52' W 001°05'611.8
2017-Dec-08 12:30N 54°48' W 000°58'611.4
2017-Dec-08 12:00N 54°44' W 000°51'1710.2
2017-Dec-08 10:19N 54°31' W 000°31'310.7
2017-Dec-08 10:01N 54°29' W 000°28'510.5
2017-Dec-08 09:30N 54°25' W 000°21'510.0
2017-Dec-08 09:00N 54°21' W 000°15'5 9.8
2017-Dec-08 08:30N 54°18' W 000°10'4 8.9
2017-Dec-08 08:01N 54°14' W 000°05'5 9.4
2017-Dec-08 07:30N 54°11' E 000°01'5 9.1
2017-Dec-08 07:00N 54°08' E 000°06'5 9.9
2017-Dec-08 06:31N 54°04' E 000°12'510.8
2017-Dec-08 06:00N 53°60' E 000°18'5213.5
2017-Dec-08 02:07N 53°19' E 001°12'214.0
2017-Dec-08 02:00N 53°17' E 001°14'713.1
2017-Dec-08 01:31N 53°13' E 001°21'612.3
2017-Dec-08 01:00N 53°09' E 001°29'611.5
2017-Dec-08 00:30N 53°05' E 001°36'611.1
2017-Dec-08 00:00N 53°01' E 001°43'611.0
2017-Dec-07 23:30N 52°58' E 001°50'510.3
2017-Dec-07 23:00N 52°55' E 001°57'510.2
2017-Dec-07 22:30N 52°51' E 002°03'6613.1
2017-Dec-07 17:28N 51°45' E 002°09'817.3
2017-Dec-07 17:00N 51°39' E 002°02'816.0
2017-Dec-07 16:31N 51°32' E 001°57'815.1
2017-Dec-07 16:00N 51°25' E 002°02'815.4
2017-Dec-07 15:30N 51°18' E 001°56'816.9
2017-Dec-07 15:00N 51°11' E 001°48'918.3
2017-Dec-07 14:31N 51°04' E 001°39'1019.7
2017-Dec-07 14:00N 50°56' E 001°30'4816.8
2017-Dec-07 11:08N 50°26' E 000°31'217.5
2017-Dec-07 11:00N 50°25' E 000°27'917.5
2017-Dec-07 10:30N 50°22' E 000°14'917.0
2017-Dec-07 10:00N 50°20' E 000°01'816.8
2017-Dec-07 09:30N 50°17' W 000°11'9213.5
2017-Dec-07 02:44N 49°53' W 002°29'312.8
2017-Dec-07 02:28N 49°52' W 002°34'913.3
2017-Dec-07 01:50N 49°50' W 002°47'413.8
2017-Dec-07 01:30N 49°48' W 002°53'714.3
2017-Dec-07 00:59N 49°45' W 003°03'714.6
2017-Dec-07 00:30N 49°41' W 003°13'  
2017-Dec-04 10:23N 43°21' W 003°02'0 0.0
2017-Dec-04 09:59N 43°21' W 003°02'0 0.0
2017-Dec-04 09:29N 43°21' W 003°02'0 0.0
2017-Dec-04 08:56N 43°21' W 003°02'0 0.0
2017-Dec-04 08:29N 43°21' W 003°02'0 0.0
2017-Dec-04 07:59N 43°21' W 003°02'0 0.0
2017-Dec-04 07:29N 43°21' W 003°02'0 0.0
2017-Dec-04 06:59N 43°21' W 003°02'0 0.0
2017-Dec-04 06:29N 43°21' W 003°02'0 0.0
2017-Dec-04 05:59N 43°21' W 003°02'0 0.0
2017-Dec-04 05:29N 43°21' W 003°02'0 0.0
2017-Dec-04 04:56N 43°21' W 003°02'0 0.0
2017-Dec-04 04:29N 43°21' W 003°02'0 0.0
2017-Dec-04 03:59N 43°21' W 003°02'0 0.0
2017-Dec-04 03:26N 43°21' W 003°02'0 0.0
2017-Dec-04 02:59N 43°21' W 003°02'0 0.0
2017-Dec-04 02:29N 43°21' W 003°02'0 0.0
2017-Dec-04 01:59N 43°21' W 003°02'0 0.0
2017-Dec-04 01:29N 43°21' W 003°02'0 0.0
2017-Dec-04 00:59N 43°21' W 003°02'0 0.0
2017-Dec-04 00:29N 43°21' W 003°02'0 0.0
2017-Dec-03 23:59N 43°21' W 003°02'0 0.0
2017-Dec-03 23:29N 43°21' W 003°02'0 0.0
2017-Dec-03 22:59N 43°21' W 003°02'0 0.0
2017-Dec-03 22:29N 43°21' W 003°02'0 0.0
2017-Dec-03 21:59N 43°21' W 003°02'0 0.0
2017-Dec-03 21:29N 43°21' W 003°02'0 0.0
2017-Dec-03 20:59N 43°21' W 003°02'0 0.0
2017-Dec-03 20:29N 43°21' W 003°02'0 0.0
2017-Dec-03 19:59N 43°21' W 003°02'0 0.0
2017-Dec-03 19:29N 43°21' W 003°02'0 0.0
2017-Dec-03 18:59N 43°21' W 003°02'0 0.0
2017-Dec-03 18:29N 43°21' W 003°02'0 0.0
2017-Dec-03 17:59N 43°21' W 003°02'0 0.0
2017-Dec-03 17:29N 43°21' W 003°02'0 0.0
2017-Dec-03 16:59N 43°21' W 003°02'0 0.0
2017-Dec-03 16:29N 43°21' W 003°02'0 0.0
2017-Dec-03 15:56N 43°21' W 003°02'0 0.0
2017-Dec-03 15:29N 43°21' W 003°02'0 0.0
2017-Dec-03 14:59N 43°21' W 003°02'0 0.0
2017-Dec-03 14:29N 43°21' W 003°02'0 0.0
2017-Dec-03 13:59N 43°21' W 003°02'0 0.0
2017-Dec-03 13:29N 43°21' W 003°02'0 0.0
2017-Dec-03 12:59N 43°21' W 003°02'0 0.0
2017-Dec-03 12:29N 43°21' W 003°02'0 0.0
2017-Dec-03 11:59N 43°21' W 003°02'0 0.0
2017-Dec-03 11:29N 43°21' W 003°02'0 0.0
2017-Dec-03 10:56N 43°21' W 003°02'0 0.0
2017-Dec-03 10:29N 43°21' W 003°02'0 0.0
2017-Dec-03 09:59N 43°21' W 003°02'0 0.0
2017-Dec-03 09:29N 43°21' W 003°02'0 0.0
2017-Dec-03 08:59N 43°21' W 003°02'0 0.0
2017-Dec-03 08:29N 43°21' W 003°02'0 0.0
2017-Dec-03 07:59N 43°21' W 003°02'0 0.0
2017-Dec-03 07:29N 43°21' W 003°02'0 0.0
2017-Dec-03 06:59N 43°21' W 003°02'0 0.0
2017-Dec-03 06:29N 43°21' W 003°02'0 0.0
2017-Dec-03 05:59N 43°21' W 003°02'0 0.0
2017-Dec-03 05:29N 43°21' W 003°02'0 0.0
2017-Dec-03 04:59N 43°21' W 003°02'0 0.0
2017-Dec-03 04:29N 43°21' W 003°02'0 0.0
2017-Dec-03 03:59N 43°21' W 003°02'0 0.0
2017-Dec-03 03:29N 43°21' W 003°02'0 0.0
2017-Dec-03 02:59N 43°21' W 003°02'0 0.0
2017-Dec-03 02:29N 43°21' W 003°02'0 0.0
2017-Dec-03 01:59N 43°21' W 003°02'0 0.0
2017-Dec-03 01:29N 43°21' W 003°02'0 0.0
2017-Dec-03 00:59N 43°21' W 003°02'0 0.0
2017-Dec-03 00:29N 43°21' W 003°02'0 0.0
2017-Dec-02 23:59N 43°21' W 003°02'0 0.0
2017-Dec-02 23:29N 43°21' W 003°02'0 0.0
2017-Dec-02 22:59N 43°21' W 003°02'0 0.0
2017-Dec-02 22:29N 43°21' W 003°02'0 0.0
2017-Dec-02 21:59N 43°21' W 003°02'0 0.0
2017-Dec-02 21:29N 43°21' W 003°02'0 0.0
2017-Dec-02 20:59N 43°21' W 003°02'0 0.0
2017-Dec-02 20:29N 43°21' W 003°02'0 0.0
2017-Dec-02 19:59N 43°21' W 003°02'0 0.0
2017-Dec-02 19:29N 43°21' W 003°02'0 0.0
2017-Dec-02 18:59N 43°21' W 003°02'0 0.0
2017-Dec-02 18:29N 43°21' W 003°02'0 0.0
2017-Dec-02 17:59N 43°21' W 003°02'0 0.0
2017-Dec-02 17:29N 43°21' W 003°02'0 0.0
2017-Dec-02 16:59N 43°21' W 003°02'0 0.0
2017-Dec-02 16:29N 43°21' W 003°02'0 0.0
2017-Dec-02 15:59N 43°21' W 003°02'0 0.0
2017-Dec-02 15:29N 43°21' W 003°02'0 0.0
2017-Dec-02 14:59N 43°21' W 003°02'0 0.0
2017-Dec-02 14:29N 43°21' W 003°02'0 0.0
2017-Dec-02 13:59N 43°21' W 003°02'0 0.0
2017-Dec-02 13:29N 43°21' W 003°02'0 0.0
2017-Dec-02 12:59N 43°21' W 003°02'0 0.0
2017-Dec-02 12:29N 43°21' W 003°02'0 0.0
2017-Dec-02 11:56N 43°21' W 003°02'0 0.0
2017-Dec-02 11:29N 43°21' W 003°02'0 0.0
2017-Dec-02 10:59N 43°21' W 003°02'0 0.0
2017-Dec-02 10:29N 43°21' W 003°02'0 0.0
2017-Dec-02 09:59N 43°21' W 003°02'0 0.0
2017-Dec-02 09:29N 43°21' W 003°02'0 0.0
2017-Dec-02 08:59N 43°21' W 003°02'0 0.0
2017-Dec-02 08:29N 43°21' W 003°02'0 0.0
2017-Dec-02 07:59N 43°21' W 003°02'0 0.0
2017-Dec-02 07:26N 43°21' W 003°02'0 0.0
2017-Dec-02 06:59N 43°21' W 003°02'0 0.0
2017-Dec-02 06:29N 43°21' W 003°02'0 0.0
2017-Dec-02 05:59N 43°21' W 003°02'0 0.0
2017-Dec-02 05:29N 43°21' W 003°02'0 0.0
2017-Dec-02 04:59N 43°21' W 003°02'0 0.0
2017-Dec-02 04:29N 43°21' W 003°02'0 0.0
2017-Dec-02 03:59N 43°21' W 003°02'0 0.0
2017-Dec-02 03:29N 43°21' W 003°02'0 0.0
2017-Dec-02 02:59N 43°21' W 003°02'0 0.0
2017-Dec-02 02:29N 43°21' W 003°02'0 0.0
2017-Dec-02 01:59N 43°21' W 003°02'0 0.0
2017-Dec-02 01:29N 43°21' W 003°02'0 0.0
2017-Dec-02 00:59N 43°21' W 003°02'0 0.0
2017-Dec-02 00:29N 43°21' W 003°02'0 0.0
2017-Dec-01 23:59N 43°21' W 003°02'0 0.0
2017-Dec-01 23:29N 43°21' W 003°02'0 0.0
2017-Dec-01 22:59N 43°21' W 003°02'0 0.0
2017-Dec-01 22:29N 43°21' W 003°02'0 0.0
2017-Dec-01 21:59N 43°21' W 003°02'0 0.0
2017-Dec-01 21:26N 43°21' W 003°02'0 0.0
2017-Dec-01 20:59N 43°21' W 003°02'0 0.0
2017-Dec-01 20:29N 43°21' W 003°02'0 0.0
2017-Dec-01 19:59N 43°21' W 003°02'0 0.0
2017-Dec-01 19:29N 43°21' W 003°02'0 0.0
2017-Dec-01 18:59N 43°21' W 003°02'0 0.0
2017-Dec-01 18:29N 43°21' W 003°02'0 0.0
2017-Dec-01 17:59N 43°21' W 003°02'0 0.0
2017-Dec-01 17:29N 43°21' W 003°02'  

Dump ship's entire track history